createdAt,value
2022-08-16T00:00:25.788Z,13.90
2022-08-16T00:03:13.588Z,16.35
2022-08-16T00:05:48.260Z,16.27
2022-08-16T00:08:35.821Z,14.45
2022-08-16T00:11:15.362Z,14.35
2022-08-16T00:13:53.309Z,14.63
2022-08-16T00:17:05.812Z,15.07
2022-08-16T00:21:44.130Z,15.98
2022-08-16T00:24:31.229Z,13.77
2022-08-16T00:27:05.312Z,17.77
2022-08-16T00:29:37.861Z,19.20
2022-08-16T00:32:08.672Z,15.75
2022-08-16T00:34:44.607Z,14.88
2022-08-16T00:37:57.728Z,17.60
2022-08-16T00:40:35.019Z,13.57
2022-08-16T00:43:12.266Z,14.10
2022-08-16T00:46:00.142Z,19.08
2022-08-16T00:48:45.619Z,19.25
2022-08-16T00:51:17.533Z,13.27
2022-08-16T00:53:47.620Z,14.90
2022-08-16T00:56:56.495Z,16.52
2022-08-16T00:59:15.272Z,16.13
2022-08-16T01:01:46.259Z,15.50
2022-08-16T01:04:29.148Z,15.27
2022-08-16T01:07:02.594Z,14.90
2022-08-16T01:09:34.318Z,17.35
2022-08-16T01:12:10.720Z,14.40
2022-08-16T01:14:47.423Z,13.40
2022-08-16T01:17:19.882Z,18.58
2022-08-16T01:19:57.423Z,16.15
2022-08-16T01:22:47.467Z,17.13
2022-08-16T01:25:23.660Z,15.73
2022-08-16T01:28:07.920Z,16.67
2022-08-16T01:30:49.899Z,15.05
2022-08-16T01:33:22.559Z,14.75
2022-08-16T01:35:58.381Z,12.95
2022-08-16T01:38:31.900Z,13.98
2022-08-16T01:41:07.479Z,12.57
2022-08-16T01:43:40.130Z,15.43
2022-08-16T01:46:37.978Z,17.58
2022-08-16T01:49:20.112Z,14.63
2022-08-16T01:51:55.122Z,14.95
2022-08-16T01:54:31.564Z,13.43
2022-08-16T01:57:03.390Z,13.93
2022-08-16T01:59:34.697Z,18.42
2022-08-16T02:02:05.019Z,16.50
2022-08-16T02:07:26.905Z,13.55
2022-08-16T02:09:58.887Z,14.13
2022-08-16T02:12:51.860Z,16.52
2022-08-16T02:15:29.224Z,16.35
2022-08-16T02:18:02.292Z,14.55
2022-08-16T02:20:35.160Z,17.38
2022-08-16T02:23:06.121Z,18.70
2022-08-16T02:25:50.683Z,16.80
2022-08-16T02:28:23.891Z,13.23
2022-08-16T02:30:54.683Z,13.75
2022-08-16T02:33:43.390Z,16.20
2022-08-16T02:36:42.426Z,17.63
2022-08-16T02:39:10.356Z,16.63
2022-08-16T02:41:41.020Z,16.55
2022-08-16T02:44:14.731Z,14.65
2022-08-16T02:46:50.617Z,17.77
2022-08-16T02:49:32.305Z,18.70
2022-08-16T02:52:17.182Z,15.75
2022-08-16T02:54:57.043Z,18.67
2022-08-16T02:57:27.693Z,15.68
2022-08-16T03:00:00.066Z,13.55
2022-08-16T03:02:31.837Z,16.85
2022-08-16T03:05:06.211Z,17.42
2022-08-16T03:07:37.737Z,14.98
2022-08-16T03:10:12.604Z,15.52
2022-08-16T03:12:56.270Z,14.48
2022-08-16T03:15:29.875Z,17.73
2022-08-16T03:17:59.237Z,15.05
2022-08-16T03:20:34.302Z,17.45
2022-08-16T03:23:06.946Z,16.33
2022-08-16T03:25:43.932Z,16.77
2022-08-16T03:28:17.220Z,13.88
2022-08-16T03:30:49.843Z,23.17
2022-08-16T03:33:20.073Z,14.18
2022-08-16T03:36:29.742Z,20.25
2022-08-16T03:38:53.281Z,15.35
2022-08-16T03:44:01.714Z,14.02
2022-08-16T03:46:47.236Z,16.80
2022-08-16T03:49:24.711Z,15.27
2022-08-16T03:52:08.914Z,16.65
2022-08-16T03:54:53.454Z,17.70
2022-08-16T03:57:31.832Z,20.30
2022-08-16T04:00:20.767Z,17.10
2022-08-16T04:03:09.507Z,14.73
2022-08-16T04:05:47.346Z,16.67
2022-08-16T04:08:23.322Z,18.02
2022-08-16T04:11:01.118Z,17.10
2022-08-16T04:14:00.893Z,22.27
2022-08-16T04:16:27.341Z,16.02
2022-08-16T04:19:05.675Z,18.58
2022-08-16T04:21:45.828Z,16.73
2022-08-16T04:24:17.419Z,17.48
2022-08-16T04:26:46.900Z,20.38
2022-08-16T04:29:23.667Z,15.55
2022-08-16T04:31:57.759Z,17.73
2022-08-16T04:34:37.198Z,18.13
2022-08-16T04:37:08.125Z,19.02
2022-08-16T04:39:47.268Z,15.88
2022-08-16T04:42:29.674Z,18.05
2022-08-16T04:45:02.052Z,19.48
2022-08-16T04:47:36.120Z,17.02
2022-08-16T04:50:14.993Z,17.13
2022-08-16T04:53:22.905Z,16.90
2022-08-16T04:55:55.890Z,18.17
2022-08-16T04:58:44.562Z,18.58
2022-08-16T05:01:15.156Z,19.00
2022-08-16T05:07:12.100Z,18.67
2022-08-16T05:10:03.872Z,18.40
2022-08-16T05:12:49.901Z,15.63
2022-08-16T05:15:19.632Z,17.90
2022-08-16T05:17:58.711Z,18.83
2022-08-16T05:20:38.842Z,16.35
2022-08-16T05:23:17.967Z,17.90
2022-08-16T05:25:51.545Z,21.10
2022-08-16T05:28:23.392Z,16.73
2022-08-16T05:31:07.666Z,16.85
2022-08-16T05:36:14.379Z,16.13
2022-08-16T05:38:52.510Z,20.52
2022-08-16T05:41:23.006Z,17.67
2022-08-16T05:44:01.224Z,17.40
2022-08-16T05:46:43.908Z,17.63
2022-08-16T05:49:22.369Z,17.87
2022-08-16T05:51:55.612Z,19.45
2022-08-16T05:54:28.470Z,17.85
2022-08-16T05:57:01.510Z,19.17
2022-08-16T05:59:33.157Z,20.48
2022-08-16T06:02:03.413Z,17.80
2022-08-16T06:04:37.886Z,19.38
2022-08-16T06:07:24.791Z,20.93
2022-08-16T06:10:09.601Z,20.63
2022-08-16T06:12:40.577Z,17.80
2022-08-16T06:15:14.943Z,19.15
2022-08-16T06:17:46.918Z,18.88
2022-08-16T06:20:34.668Z,18.20
2022-08-16T06:23:17.458Z,20.73
2022-08-16T06:26:18.621Z,18.98
2022-08-16T06:28:50.271Z,19.67
2022-08-16T06:31:30.077Z,17.98
2022-08-16T06:34:01.092Z,20.10
2022-08-16T06:36:35.170Z,19.95
2022-08-16T06:39:14.065Z,17.38
2022-08-16T06:41:57.432Z,18.83
2022-08-16T06:44:59.096Z,21.70
2022-08-16T06:47:53.565Z,21.13
2022-08-16T06:50:29.681Z,18.02
2022-08-16T06:53:08.297Z,19.77
2022-08-16T06:55:43.280Z,26.92
2022-08-16T06:58:21.704Z,17.88
2022-08-16T07:00:59.933Z,25.00
2022-08-16T07:03:32.368Z,21.30
2022-08-16T07:06:05.630Z,20.92
2022-08-16T07:08:43.236Z,20.60
2022-08-16T07:11:13.367Z,18.40
2022-08-16T07:14:00.122Z,22.45
2022-08-16T07:16:42.974Z,22.55
2022-08-16T07:19:12.492Z,22.45
2022-08-16T07:21:46.509Z,20.13
2022-08-16T07:24:30.993Z,20.38
2022-08-16T07:27:08.578Z,20.60
2022-08-16T07:29:44.073Z,19.85
2022-08-16T07:32:14.528Z,22.77
2022-08-16T07:34:48.565Z,21.15
2022-08-16T07:37:22.369Z,20.85
2022-08-16T07:40:11.534Z,20.13
2022-08-16T07:42:47.876Z,19.17
2022-08-16T07:45:20.200Z,19.15
2022-08-16T07:47:53.706Z,20.25
2022-08-16T07:50:55.741Z,18.88
2022-08-16T07:53:16.019Z,21.48
2022-08-16T07:55:48.025Z,23.45
2022-08-16T07:58:33.721Z,20.77
2022-08-16T08:01:10.488Z,19.77
2022-08-16T08:03:48.779Z,18.88
2022-08-16T08:06:24.728Z,20.08
2022-08-16T08:08:57.381Z,18.17
2022-08-16T08:11:30.352Z,18.73
2022-08-16T08:14:06.708Z,18.08
2022-08-16T08:19:23.886Z,18.85
2022-08-16T08:22:00.957Z,17.55
2022-08-16T08:24:53.370Z,18.67
2022-08-16T08:27:32.801Z,17.15
2022-08-16T08:30:51.760Z,16.55
2022-08-16T08:32:59.595Z,20.52
2022-08-16T08:35:34.519Z,18.75
2022-08-16T08:38:08.667Z,18.05
2022-08-16T08:40:43.152Z,22.58
2022-08-16T08:43:18.458Z,17.15
2022-08-16T08:45:55.690Z,17.25
2022-08-16T08:48:33.725Z,18.60
2022-08-16T08:51:11.230Z,18.15
2022-08-16T08:53:59.143Z,16.23
2022-08-16T08:56:35.147Z,16.52
2022-08-16T08:59:31.530Z,16.58
2022-08-16T09:02:01.994Z,18.50
2022-08-16T09:04:42.000Z,23.42
2022-08-16T09:07:18.938Z,15.80
2022-08-16T09:09:49.742Z,16.10
2022-08-16T09:12:38.843Z,15.53
2022-08-16T09:15:14.327Z,15.98
2022-08-16T09:17:51.761Z,19.45
2022-08-16T09:20:27.682Z,16.05
2022-08-16T09:22:58.008Z,16.20
2022-08-16T09:25:38.506Z,18.40
2022-08-16T09:28:13.336Z,16.02
2022-08-16T09:31:11.002Z,14.05
2022-08-16T09:33:42.211Z,15.35
2022-08-16T09:36:32.017Z,14.45
2022-08-16T09:39:03.728Z,14.00
2022-08-16T09:41:33.611Z,14.35
2022-08-16T09:45:10.643Z,14.45
2022-08-16T09:46:57.677Z,17.60
2022-08-16T09:49:36.699Z,13.45
2022-08-16T09:52:09.452Z,14.40
2022-08-16T09:54:44.313Z,13.30
2022-08-16T09:57:14.961Z,12.93
2022-08-16T09:59:45.147Z,12.48
2022-08-16T10:02:27.305Z,13.50
2022-08-16T10:05:15.537Z,18.27
2022-08-16T10:07:47.349Z,14.85
2022-08-16T10:10:18.874Z,12.85
2022-08-16T10:13:16.367Z,14.57
2022-08-16T10:15:55.531Z,14.82
2022-08-16T10:19:02.280Z,16.00
2022-08-16T10:21:17.414Z,11.63
2022-08-16T10:23:53.447Z,10.65
2022-08-16T10:27:20.323Z,13.85
2022-08-16T10:29:19.924Z,13.10
2022-08-16T10:31:53.309Z,11.70
2022-08-16T10:34:32.519Z,13.27
2022-08-16T10:37:03.516Z,12.20
2022-08-16T10:39:41.440Z,13.60
2022-08-16T10:42:13.258Z,11.30
2022-08-16T10:44:53.743Z,14.82
2022-08-16T10:47:24.476Z,10.73
2022-08-16T10:49:56.139Z,10.45
2022-08-16T10:52:27.551Z,11.40
2022-08-16T10:57:55.485Z,17.05
2022-08-16T11:00:26.657Z,11.95
2022-08-16T11:03:00.249Z,14.02
2022-08-16T11:08:31.179Z,11.82
2022-08-16T11:11:11.781Z,13.13
2022-08-16T11:13:58.664Z,11.25
2022-08-16T11:19:19.130Z,10.18
2022-08-16T11:24:44.675Z,12.50
2022-08-16T11:27:20.525Z,13.45
2022-08-16T11:29:53.093Z,9.98
2022-08-16T11:32:31.352Z,12.95
2022-08-16T11:35:10.566Z,14.80
2022-08-16T11:40:36.237Z,15.85
2022-08-16T11:43:10.027Z,16.42
2022-08-16T11:45:42.526Z,10.25
2022-08-16T11:48:14.107Z,10.27
2022-08-16T11:50:44.854Z,9.05
2022-08-16T11:53:15.195Z,10.50
2022-08-16T11:55:46.193Z,9.82
2022-08-16T11:58:22.789Z,11.77
2022-08-16T12:00:55.768Z,12.02
2022-08-16T12:03:31.538Z,12.10
2022-08-16T12:06:10.679Z,9.77
2022-08-16T12:08:42.641Z,9.90
2022-08-16T12:11:13.557Z,12.18
2022-08-16T12:13:45.806Z,8.98
2022-08-16T12:16:17.652Z,14.32
2022-08-16T12:18:50.524Z,11.60
2022-08-16T12:21:20.304Z,13.27
2022-08-16T12:23:51.908Z,11.80
2022-08-16T12:26:23.758Z,9.23
2022-08-16T12:28:56.553Z,9.60
2022-08-16T12:31:26.908Z,10.00
2022-08-16T12:33:57.641Z,10.18
2022-08-16T12:36:29.966Z,11.95
2022-08-16T12:39:00.357Z,9.60
2022-08-16T12:41:34.755Z,10.77
2022-08-16T12:44:06.597Z,9.95
2022-08-16T12:46:36.829Z,9.10
2022-08-16T12:49:08.402Z,13.35
2022-08-16T12:51:58.709Z,9.30
2022-08-16T12:54:32.302Z,12.00
2022-08-16T12:57:14.135Z,11.70
2022-08-16T12:59:48.557Z,10.32
2022-08-16T13:02:33.279Z,14.57
2022-08-16T13:05:03.187Z,9.13
2022-08-16T13:07:42.467Z,15.10
2022-08-16T13:10:21.073Z,11.20
2022-08-16T13:13:07.013Z,10.77
2022-08-16T13:15:55.438Z,10.65
2022-08-16T13:18:34.067Z,8.05
2022-08-16T13:21:06.525Z,9.55
2022-08-16T13:23:43.320Z,11.07
2022-08-16T13:26:17.160Z,10.13
2022-08-16T13:28:47.873Z,9.93
2022-08-16T13:31:18.979Z,11.57
2022-08-16T13:33:48.497Z,12.80
2022-08-16T13:36:32.257Z,13.10
2022-08-16T13:39:07.799Z,10.82
2022-08-16T13:41:37.225Z,11.20
2022-08-16T13:44:09.476Z,9.40
2022-08-16T13:46:41.767Z,9.55
2022-08-16T13:49:11.570Z,11.95
2022-08-16T13:54:10.548Z,9.48
2022-08-16T13:56:41.425Z,7.97
2022-08-16T13:59:16.558Z,10.00
2022-08-16T14:01:56.683Z,14.90
2022-08-16T14:04:31.674Z,9.15
2022-08-16T14:07:02.957Z,10.43
2022-08-16T14:09:34.443Z,11.63
2022-08-16T14:12:09.808Z,15.13
2022-08-16T14:14:47.784Z,8.55
2022-08-16T14:17:19.333Z,10.15
2022-08-16T14:19:53.669Z,11.70
2022-08-16T14:22:39.945Z,10.50
2022-08-16T14:25:18.625Z,11.27
2022-08-16T14:27:48.613Z,11.43
2022-08-16T14:30:24.596Z,11.82
2022-08-16T14:32:56.129Z,10.82
2022-08-16T14:35:36.875Z,12.05
2022-08-16T14:38:19.242Z,8.93
2022-08-16T14:40:55.575Z,14.02
2022-08-16T14:43:25.415Z,10.98
2022-08-16T14:45:55.685Z,9.60
2022-08-16T14:48:26.798Z,9.85
2022-08-16T14:50:56.763Z,10.88
2022-08-16T14:53:27.101Z,11.05
2022-08-16T14:55:57.167Z,11.25
2022-08-16T14:58:34.871Z,13.45
2022-08-16T15:01:09.727Z,11.18
2022-08-16T15:03:44.769Z,8.88
2022-08-16T15:06:14.735Z,11.00
2022-08-16T15:08:46.095Z,10.05
2022-08-16T15:11:22.996Z,7.97
2022-08-16T15:13:52.534Z,14.68
2022-08-16T15:16:22.823Z,23.38
2022-08-16T15:19:00.509Z,12.65
2022-08-16T15:21:31.126Z,5.95
2022-08-16T15:24:01.216Z,8.20
2022-08-16T15:26:42.700Z,5.90
2022-08-16T15:29:14.625Z,9.40
2022-08-16T15:31:46.190Z,9.38
2022-08-16T15:34:25.934Z,6.20
2022-08-16T15:36:55.852Z,8.98
2022-08-16T15:39:30.224Z,12.70
2022-08-16T15:42:11.178Z,7.35
2022-08-16T15:44:52.233Z,7.45
2022-08-16T15:47:27.077Z,7.07
2022-08-16T15:49:58.074Z,5.90
2022-08-16T15:52:30.348Z,7.30
2022-08-16T15:55:07.490Z,6.18
2022-08-16T15:57:42.898Z,4.70
2022-08-16T16:00:14.959Z,4.68
2022-08-16T16:02:46.806Z,7.18
2022-08-16T16:05:20.624Z,5.30
2022-08-16T16:07:56.858Z,5.82
2022-08-16T16:10:39.799Z,7.55
2022-08-16T16:13:09.915Z,6.47
2022-08-16T16:15:41.223Z,5.70
2022-08-16T16:18:13.779Z,6.30
2022-08-16T16:20:47.550Z,5.90
2022-08-16T16:23:19.662Z,6.68
2022-08-16T16:25:54.705Z,4.50
2022-08-16T16:29:05.578Z,6.32
2022-08-16T16:31:20.072Z,4.50
2022-08-16T16:33:52.300Z,5.53
2022-08-16T16:36:28.707Z,5.18
2022-08-16T16:39:00.736Z,5.68
2022-08-16T16:41:32.236Z,4.70
2022-08-16T16:44:03.276Z,4.13
2022-08-16T16:46:43.157Z,4.55
2022-08-16T16:49:14.930Z,3.83
2022-08-16T16:51:49.656Z,3.42
2022-08-16T16:54:27.744Z,4.55
2022-08-16T16:56:58.632Z,5.03
2022-08-16T16:59:28.360Z,6.75
2022-08-16T17:02:38.929Z,4.20
2022-08-16T17:04:50.649Z,7.30
2022-08-16T17:07:24.243Z,7.10
2022-08-16T17:09:54.668Z,5.38
2022-08-16T17:12:46.805Z,6.32
2022-08-16T17:15:16.299Z,6.05
2022-08-16T17:18:00.128Z,6.68
2022-08-16T17:20:31.050Z,5.03
2022-08-16T17:25:36.681Z,7.22
2022-08-16T17:28:59.034Z,7.68
2022-08-16T17:30:58.586Z,6.35
2022-08-16T17:33:37.169Z,8.52
2022-08-16T17:36:36.622Z,8.65
2022-08-16T17:39:09.420Z,9.60
2022-08-16T17:41:39.069Z,9.43
2022-08-16T17:44:10.423Z,10.40
2022-08-16T17:46:50.089Z,10.95
2022-08-16T17:49:22.479Z,11.70
2022-08-16T17:51:51.794Z,11.00
2022-08-16T17:54:30.635Z,10.88
2022-08-16T17:57:01.350Z,12.93
2022-08-16T17:59:31.706Z,16.77
2022-08-16T18:02:42.613Z,12.93
2022-08-16T18:04:56.758Z,14.23
2022-08-16T18:09:56.966Z,14.70
2022-08-16T18:12:50.871Z,15.82
2022-08-16T18:15:20.811Z,11.60
2022-08-16T18:17:53.237Z,13.93
2022-08-16T18:20:41.980Z,12.20
2022-08-16T18:23:15.549Z,15.07
2022-08-16T18:25:50.601Z,9.95
2022-08-16T18:28:21.251Z,10.23
2022-08-16T18:30:52.854Z,14.73
2022-08-16T18:33:26.409Z,13.25
2022-08-16T18:35:57.825Z,11.27
2022-08-16T18:38:27.683Z,9.20
2022-08-16T18:40:58.376Z,13.23
2022-08-16T18:44:23.685Z,10.45
2022-08-16T18:46:17.798Z,11.43
2022-08-16T18:48:47.113Z,7.80
2022-08-16T18:51:21.583Z,11.98
2022-08-16T18:53:54.547Z,9.85
2022-08-16T18:56:53.765Z,9.65
2022-08-16T18:59:14.863Z,11.48
2022-08-16T19:01:44.322Z,9.82
2022-08-16T19:04:57.438Z,9.23
2022-08-16T19:07:03.280Z,9.85
2022-08-16T19:09:32.717Z,10.02
2022-08-16T19:12:07.446Z,11.70
2022-08-16T19:14:37.183Z,10.70
2022-08-16T19:17:06.679Z,10.07
2022-08-16T19:19:36.057Z,11.15
2022-08-16T19:22:06.359Z,10.13
2022-08-16T19:24:35.700Z,9.27
2022-08-16T19:27:10.179Z,9.10
2022-08-16T19:29:39.770Z,11.40
2022-08-16T19:32:19.045Z,9.70
2022-08-16T19:34:48.710Z,9.18
2022-08-16T19:37:18.046Z,11.35
2022-08-16T19:39:47.631Z,9.02
2022-08-16T19:44:51.734Z,9.43
2022-08-16T19:47:22.902Z,9.18
2022-08-16T19:49:52.482Z,10.45
2022-08-16T19:52:24.863Z,12.00
2022-08-16T19:55:04.773Z,10.10
2022-08-16T19:57:36.035Z,12.38
2022-08-16T20:00:12.403Z,9.32
2022-08-16T20:02:51.033Z,8.77
2022-08-16T20:05:25.265Z,9.77
2022-08-16T20:07:55.853Z,9.20
2022-08-16T20:10:31.645Z,9.52
2022-08-16T20:13:03.041Z,8.82
2022-08-16T20:15:34.208Z,8.80
2022-08-16T20:18:12.696Z,9.73
2022-08-16T20:20:55.890Z,8.02
2022-08-16T20:23:25.825Z,11.35
2022-08-16T20:25:56.600Z,10.75
2022-08-16T20:28:40.699Z,9.63
2022-08-16T20:31:16.950Z,10.98
2022-08-16T20:33:46.477Z,10.68
2022-08-16T20:36:16.855Z,11.07
2022-08-16T20:41:19.628Z,9.93
2022-08-16T20:43:50.719Z,12.00
2022-08-16T20:46:24.694Z,10.93
2022-08-16T20:48:54.275Z,9.05
2022-08-16T20:51:23.566Z,9.57
2022-08-16T20:53:52.871Z,10.68
2022-08-16T20:56:22.487Z,9.63
2022-08-16T20:58:53.254Z,10.20
2022-08-16T21:01:22.863Z,10.30
2022-08-16T21:03:52.847Z,8.85
2022-08-16T21:06:22.237Z,9.25
2022-08-16T21:08:54.153Z,12.48
2022-08-16T21:11:27.570Z,14.23
2022-08-16T21:14:00.460Z,10.48
2022-08-16T21:16:30.532Z,10.25
2022-08-16T21:19:00.806Z,10.60
2022-08-16T21:21:33.608Z,8.80
2022-08-16T21:24:04.143Z,12.10
2022-08-16T21:26:34.936Z,11.70
2022-08-16T21:29:11.262Z,8.65
2022-08-16T21:31:43.660Z,8.65
2022-08-16T21:34:13.252Z,9.90
2022-08-16T21:36:42.455Z,10.93
2022-08-16T21:39:11.638Z,12.20
2022-08-16T21:41:41.252Z,12.88
2022-08-16T21:44:12.055Z,12.15
2022-08-16T21:46:41.484Z,9.95
2022-08-16T21:49:10.651Z,11.60
2022-08-16T21:51:39.949Z,10.93
2022-08-16T21:54:09.646Z,12.75
2022-08-16T21:56:39.197Z,12.80
2022-08-16T21:59:11.009Z,11.48
2022-08-16T22:01:44.005Z,14.40
2022-08-16T22:04:37.316Z,11.00
2022-08-16T22:07:05.923Z,11.95
2022-08-16T22:09:35.375Z,11.10
2022-08-16T22:12:05.010Z,11.05
2022-08-16T22:17:05.132Z,10.80
2022-08-16T22:19:34.653Z,12.80
2022-08-16T22:22:04.880Z,11.57
2022-08-16T22:24:34.249Z,11.68
2022-08-16T22:27:03.547Z,11.43
2022-08-16T22:29:33.461Z,11.60
2022-08-16T22:32:05.626Z,11.20
2022-08-16T22:34:35.321Z,14.10
2022-08-16T22:37:04.623Z,12.90
2022-08-16T22:39:33.994Z,13.43
2022-08-16T22:42:08.408Z,11.25
2022-08-16T22:44:40.935Z,14.82
2022-08-16T22:47:14.637Z,13.40
2022-08-16T22:49:43.899Z,12.63
2022-08-16T22:52:13.531Z,16.45
2022-08-16T22:55:03.400Z,11.65
2022-08-16T22:57:32.921Z,14.15
2022-08-16T23:00:02.283Z,10.95
2022-08-16T23:02:33.095Z,12.23
2022-08-16T23:05:02.708Z,12.82
2022-08-16T23:07:31.934Z,11.35
2022-08-16T23:10:01.539Z,10.98
2022-08-16T23:12:31.221Z,11.13
2022-08-16T23:15:04.691Z,12.75
2022-08-16T23:17:36.122Z,13.65
2022-08-16T23:20:06.343Z,12.07
2022-08-16T23:23:20.885Z,13.65
2022-08-16T23:25:37.440Z,12.63
2022-08-16T23:28:08.382Z,14.25
2022-08-16T23:30:40.730Z,13.90
2022-08-16T23:33:15.286Z,13.23
2022-08-16T23:35:46.940Z,11.98
2022-08-16T23:38:38.108Z,14.02
2022-08-16T23:41:09.298Z,11.45
2022-08-16T23:43:44.947Z,12.30
2022-08-16T23:46:17.299Z,13.80
2022-08-16T23:49:58.643Z,11.32
2022-08-16T23:51:37.997Z,15.38
2022-08-16T23:54:09.754Z,12.23
2022-08-16T23:56:40.530Z,13.32
2022-08-16T23:59:10.717Z,13.68
